sensor_id;sensor_type;location;lat;lon;timestamp;P1;durP1;ratioP1;P2;durP2;ratioP2
19798;SDS011;10059;59.850;10.454;2022-10-16T00:00:47;3.23;;;0.40;;
19798;SDS011;10059;59.850;10.454;2022-10-16T00:03:14;0.60;;;0.20;;
19798;SDS011;10059;59.850;10.454;2022-10-16T00:05:42;1.17;;;0.50;;
19798;SDS011;10059;59.850;10.454;2022-10-16T00:08:11;0.77;;;0.40;;
19798;SDS011;10059;59.850;10.454;2022-10-16T00:10:38;1.40;;;0.30;;
19798;SDS011;10059;59.850;10.454;2022-10-16T00:13:06;0.30;;;0.20;;
19798;SDS011;10059;59.850;10.454;2022-10-16T00:15:35;0.83;;;0.40;;
19798;SDS011;10059;59.850;10.454;2022-10-16T00:18:04;0.30;;;0.27;;
19798;SDS011;10059;59.850;10.454;2022-10-16T00:20:33;0.83;;;0.20;;
19798;SDS011;10059;59.850;10.454;2022-10-16T00:23:01;2.73;;;0.50;;
19798;SDS011;10059;59.850;10.454;2022-10-16T00:25:29;0.30;;;0.30;;
19798;SDS011;10059;59.850;10.454;2022-10-16T00:27:57;2.43;;;0.30;;
19798;SDS011;10059;59.850;10.454;2022-10-16T00:30:24;3.90;;;0.30;;
19798;SDS011;10059;59.850;10.454;2022-10-16T00:32:54;0.30;;;0.30;;
19798;SDS011;10059;59.850;10.454;2022-10-16T00:35:21;0.30;;;0.30;;
19798;SDS011;10059;59.850;10.454;2022-10-16T00:37:48;0.30;;;0.30;;
19798;SDS011;10059;59.850;10.454;2022-10-16T00:40:15;0.30;;;0.30;;
19798;SDS011;10059;59.850;10.454;2022-10-16T00:42:43;0.30;;;0.30;;
19798;SDS011;10059;59.850;10.454;2022-10-16T00:45:10;0.27;;;0.27;;
19798;SDS011;10059;59.850;10.454;2022-10-16T00:47:38;0.30;;;0.30;;
19798;SDS011;10059;59.850;10.454;2022-10-16T00:50:09;2.60;;;0.40;;
19798;SDS011;10059;59.850;10.454;2022-10-16T00:52:41;0.30;;;0.30;;
19798;SDS011;10059;59.850;10.454;2022-10-16T00:55:12;0.77;;;0.40;;
19798;SDS011;10059;59.850;10.454;2022-10-16T00:57:40;0.47;;;0.40;;
19798;SDS011;10059;59.850;10.454;2022-10-16T01:00:10;3.37;;;0.50;;
19798;SDS011;10059;59.850;10.454;2022-10-16T01:02:39;0.43;;;0.37;;
19798;SDS011;10059;59.850;10.454;2022-10-16T01:05:06;1.27;;;0.40;;
19798;SDS011;10059;59.850;10.454;2022-10-16T01:07:37;0.73;;;0.40;;
19798;SDS011;10059;59.850;10.454;2022-10-16T01:10:13;0.30;;;0.30;;
19798;SDS011;10059;59.850;10.454;2022-10-16T01:12:50;0.40;;;0.37;;
19798;SDS011;10059;59.850;10.454;2022-10-16T01:15:24;0.40;;;0.40;;
19798;SDS011;10059;59.850;10.454;2022-10-16T01:17:56;0.33;;;0.33;;
19798;SDS011;10059;59.850;10.454;2022-10-16T01:20:29;0.70;;;0.40;;
19798;SDS011;10059;59.850;10.454;2022-10-16T01:23:05;0.77;;;0.30;;
19798;SDS011;10059;59.850;10.454;2022-10-16T01:25:39;2.73;;;0.50;;
19798;SDS011;10059;59.850;10.454;2022-10-16T01:28:25;0.93;;;0.40;;
19798;SDS011;10059;59.850;10.454;2022-10-16T01:30:58;0.20;;;0.20;;
19798;SDS011;10059;59.850;10.454;2022-10-16T01:33:28;0.60;;;0.30;;
19798;SDS011;10059;59.850;10.454;2022-10-16T01:36:02;2.63;;;0.30;;
19798;SDS011;10059;59.850;10.454;2022-10-16T01:38:36;0.30;;;0.30;;
19798;SDS011;10059;59.850;10.454;2022-10-16T01:41:06;0.20;;;0.20;;
19798;SDS011;10059;59.850;10.454;2022-10-16T01:43:37;4.23;;;0.30;;
19798;SDS011;10059;59.850;10.454;2022-10-16T01:46:07;6.67;;;0.30;;
19798;SDS011;10059;59.850;10.454;2022-10-16T01:48:34;1.40;;;0.40;;
19798;SDS011;10059;59.850;10.454;2022-10-16T01:51:03;0.20;;;0.20;;
19798;SDS011;10059;59.850;10.454;2022-10-16T01:53:33;0.40;;;0.30;;
19798;SDS011;10059;59.850;10.454;2022-10-16T01:56:01;2.00;;;0.40;;
19798;SDS011;10059;59.850;10.454;2022-10-16T01:58:32;0.50;;;0.30;;
19798;SDS011;10059;59.850;10.454;2022-10-16T02:01:04;2.60;;;0.30;;
19798;SDS011;10059;59.850;10.454;2022-10-16T02:03:35;0.30;;;0.30;;
19798;SDS011;10059;59.850;10.454;2022-10-16T02:06:07;1.30;;;0.30;;
19798;SDS011;10059;59.850;10.454;2022-10-16T02:08:34;0.20;;;0.20;;
19798;SDS011;10059;59.850;10.454;2022-10-16T02:11:02;1.60;;;0.30;;
19798;SDS011;10059;59.850;10.454;2022-10-16T02:13:30;0.30;;;0.30;;
19798;SDS011;10059;59.850;10.454;2022-10-16T02:16:01;1.13;;;0.30;;
19798;SDS011;10059;59.850;10.454;2022-10-16T02:18:30;0.70;;;0.30;;
19798;SDS011;10059;59.850;10.454;2022-10-16T02:20:59;0.23;;;0.23;;
19798;SDS011;10059;59.850;10.454;2022-10-16T02:23:30;1.13;;;0.37;;
19798;SDS011;10059;59.850;10.454;2022-10-16T02:26:04;0.73;;;0.40;;
19798;SDS011;10059;59.850;10.454;2022-10-16T02:28:36;0.43;;;0.30;;
19798;SDS011;10059;59.850;10.454;2022-10-16T02:31:08;3.27;;;0.30;;
19798;SDS011;10059;59.850;10.454;2022-10-16T02:33:39;4.33;;;0.50;;
19798;SDS011;10059;59.850;10.454;2022-10-16T02:36:08;0.50;;;0.37;;
19798;SDS011;10059;59.850;10.454;2022-10-16T02:38:36;0.77;;;0.50;;
19798;SDS011;10059;59.850;10.454;2022-10-16T02:41:05;0.37;;;0.37;;
19798;SDS011;10059;59.850;10.454;2022-10-16T02:43:33;0.83;;;0.47;;
19798;SDS011;10059;59.850;10.454;2022-10-16T02:46:00;0.40;;;0.40;;
19798;SDS011;10059;59.850;10.454;2022-10-16T02:48:27;0.50;;;0.50;;
19798;SDS011;10059;59.850;10.454;2022-10-16T02:50:56;2.70;;;0.40;;
19798;SDS011;10059;59.850;10.454;2022-10-16T02:53:23;0.30;;;0.30;;
19798;SDS011;10059;59.850;10.454;2022-10-16T02:55:50;0.40;;;0.40;;
19798;SDS011;10059;59.850;10.454;2022-10-16T02:58:17;1.20;;;0.40;;
19798;SDS011;10059;59.850;10.454;2022-10-16T03:00:44;1.57;;;0.50;;
19798;SDS011;10059;59.850;10.454;2022-10-16T03:03:11;0.57;;;0.47;;
19798;SDS011;10059;59.850;10.454;2022-10-16T03:05:38;2.77;;;0.60;;
19798;SDS011;10059;59.850;10.454;2022-10-16T03:08:06;0.40;;;0.40;;
19798;SDS011;10059;59.850;10.454;2022-10-16T03:10:33;0.63;;;0.50;;
19798;SDS011;10059;59.850;10.454;2022-10-16T03:13:00;0.83;;;0.50;;
19798;SDS011;10059;59.850;10.454;2022-10-16T03:15:27;5.03;;;0.53;;
19798;SDS011;10059;59.850;10.454;2022-10-16T03:17:54;0.70;;;0.60;;
19798;SDS011;10059;59.850;10.454;2022-10-16T03:20:23;0.53;;;0.53;;
19798;SDS011;10059;59.850;10.454;2022-10-16T03:22:50;0.60;;;0.50;;
19798;SDS011;10059;59.850;10.454;2022-10-16T03:25:18;0.60;;;0.60;;
19798;SDS011;10059;59.850;10.454;2022-10-16T03:27:45;0.63;;;0.63;;
19798;SDS011;10059;59.850;10.454;2022-10-16T03:30:15;0.80;;;0.70;;
19798;SDS011;10059;59.850;10.454;2022-10-16T03:32:43;0.50;;;0.50;;
19798;SDS011;10059;59.850;10.454;2022-10-16T03:35:10;1.00;;;0.57;;
19798;SDS011;10059;59.850;10.454;2022-10-16T03:37:37;1.93;;;0.70;;
19798;SDS011;10059;59.850;10.454;2022-10-16T03:40:05;0.50;;;0.50;;
19798;SDS011;10059;59.850;10.454;2022-10-16T03:42:34;2.60;;;0.50;;
19798;SDS011;10059;59.850;10.454;2022-10-16T03:45:01;0.50;;;0.50;;
19798;SDS011;10059;59.850;10.454;2022-10-16T03:47:28;2.13;;;0.50;;
19798;SDS011;10059;59.850;10.454;2022-10-16T03:49:55;3.23;;;0.50;;
19798;SDS011;10059;59.850;10.454;2022-10-16T03:52:22;0.77;;;0.50;;
19798;SDS011;10059;59.850;10.454;2022-10-16T03:54:49;1.03;;;0.60;;
19798;SDS011;10059;59.850;10.454;2022-10-16T03:57:16;1.27;;;0.50;;
19798;SDS011;10059;59.850;10.454;2022-10-16T03:59:45;0.67;;;0.40;;
19798;SDS011;10059;59.850;10.454;2022-10-16T04:02:12;3.60;;;0.40;;
19798;SDS011;10059;59.850;10.454;2022-10-16T04:04:39;1.80;;;0.70;;
19798;SDS011;10059;59.850;10.454;2022-10-16T04:07:06;2.50;;;0.40;;
19798;SDS011;10059;59.850;10.454;2022-10-16T04:09:33;1.27;;;0.50;;
19798;SDS011;10059;59.850;10.454;2022-10-16T04:12:00;2.80;;;0.60;;
19798;SDS011;10059;59.850;10.454;2022-10-16T04:14:27;0.40;;;0.40;;
19798;SDS011;10059;59.850;10.454;2022-10-16T04:16:55;1.77;;;0.60;;
19798;SDS011;10059;59.850;10.454;2022-10-16T04:19:22;4.93;;;0.50;;
19798;SDS011;10059;59.850;10.454;2022-10-16T04:21:49;2.80;;;0.60;;
19798;SDS011;10059;59.850;10.454;2022-10-16T04:24:16;0.50;;;0.50;;
19798;SDS011;10059;59.850;10.454;2022-10-16T04:26:43;0.70;;;0.50;;
19798;SDS011;10059;59.850;10.454;2022-10-16T04:29:10;0.50;;;0.50;;
19798;SDS011;10059;59.850;10.454;2022-10-16T04:31:37;0.60;;;0.60;;
19798;SDS011;10059;59.850;10.454;2022-10-16T04:34:05;0.80;;;0.80;;
19798;SDS011;10059;59.850;10.454;2022-10-16T04:36:35;2.10;;;0.60;;
19798;SDS011;10059;59.850;10.454;2022-10-16T04:39:02;0.60;;;0.60;;
19798;SDS011;10059;59.850;10.454;2022-10-16T04:41:29;0.93;;;0.60;;
19798;SDS011;10059;59.850;10.454;2022-10-16T04:43:56;5.83;;;0.70;;
19798;SDS011;10059;59.850;10.454;2022-10-16T04:46:23;1.17;;;0.97;;
19798;SDS011;10059;59.850;10.454;2022-10-16T04:48:50;1.97;;;0.77;;
19798;SDS011;10059;59.850;10.454;2022-10-16T04:51:18;2.00;;;1.00;;
19798;SDS011;10059;59.850;10.454;2022-10-16T04:53:45;1.23;;;1.10;;
19798;SDS011;10059;59.850;10.454;2022-10-16T04:56:12;1.13;;;0.90;;
19798;SDS011;10059;59.850;10.454;2022-10-16T04:58:40;0.80;;;0.80;;
19798;SDS011;10059;59.850;10.454;2022-10-16T05:01:07;0.70;;;0.70;;
19798;SDS011;10059;59.850;10.454;2022-10-16T05:03:34;6.80;;;0.97;;
19798;SDS011;10059;59.850;10.454;2022-10-16T05:06:01;1.13;;;0.70;;
19798;SDS011;10059;59.850;10.454;2022-10-16T05:08:30;1.00;;;0.90;;
19798;SDS011;10059;59.850;10.454;2022-10-16T05:10:57;1.40;;;0.97;;
19798;SDS011;10059;59.850;10.454;2022-10-16T05:13:25;2.20;;;1.00;;
19798;SDS011;10059;59.850;10.454;2022-10-16T05:15:52;2.20;;;0.80;;
19798;SDS011;10059;59.850;10.454;2022-10-16T05:18:19;2.60;;;1.27;;
19798;SDS011;10059;59.850;10.454;2022-10-16T05:20:45;1.00;;;0.90;;
19798;SDS011;10059;59.850;10.454;2022-10-16T05:23:12;1.20;;;1.10;;
19798;SDS011;10059;59.850;10.454;2022-10-16T05:25:41;3.30;;;1.20;;
19798;SDS011;10059;59.850;10.454;2022-10-16T05:28:08;1.50;;;1.40;;
19798;SDS011;10059;59.850;10.454;2022-10-16T05:30:36;2.33;;;1.90;;
19798;SDS011;10059;59.850;10.454;2022-10-16T05:33:03;6.27;;;1.80;;
19798;SDS011;10059;59.850;10.454;2022-10-16T05:35:30;2.77;;;2.20;;
19798;SDS011;10059;59.850;10.454;2022-10-16T05:37:57;3.40;;;1.90;;
19798;SDS011;10059;59.850;10.454;2022-10-16T05:40:24;2.70;;;1.80;;
19798;SDS011;10059;59.850;10.454;2022-10-16T05:42:55;2.83;;;1.83;;
19798;SDS011;10059;59.850;10.454;2022-10-16T05:45:22;4.23;;;2.00;;
19798;SDS011;10059;59.850;10.454;2022-10-16T05:47:49;2.80;;;2.10;;
19798;SDS011;10059;59.850;10.454;2022-10-16T05:50:16;7.80;;;5.30;;
19798;SDS011;10059;59.850;10.454;2022-10-16T05:52:43;3.40;;;2.73;;
19798;SDS011;10059;59.850;10.454;2022-10-16T05:55:10;3.27;;;2.50;;
19798;SDS011;10059;59.850;10.454;2022-10-16T05:57:37;3.07;;;2.17;;
19798;SDS011;10059;59.850;10.454;2022-10-16T06:00:06;2.50;;;2.00;;
19798;SDS011;10059;59.850;10.454;2022-10-16T06:02:34;5.70;;;1.90;;
19798;SDS011;10059;59.850;10.454;2022-10-16T06:05:01;2.40;;;1.87;;
19798;SDS011;10059;59.850;10.454;2022-10-16T06:07:28;1.70;;;1.50;;
19798;SDS011;10059;59.850;10.454;2022-10-16T06:09:55;34.27;;;12.70;;
19798;SDS011;10059;59.850;10.454;2022-10-16T06:12:22;3.20;;;1.70;;
19798;SDS011;10059;59.850;10.454;2022-10-16T06:14:49;2.23;;;1.43;;
19798;SDS011;10059;59.850;10.454;2022-10-16T06:17:17;2.60;;;2.00;;
19798;SDS011;10059;59.850;10.454;2022-10-16T06:19:44;3.80;;;2.03;;
19798;SDS011;10059;59.850;10.454;2022-10-16T06:22:11;3.57;;;2.30;;
19798;SDS011;10059;59.850;10.454;2022-10-16T06:24:38;2.03;;;1.60;;
19798;SDS011;10059;59.850;10.454;2022-10-16T06:27:05;1.70;;;1.53;;
19798;SDS011;10059;59.850;10.454;2022-10-16T06:29:32;2.63;;;1.40;;
19798;SDS011;10059;59.850;10.454;2022-10-16T06:31:59;4.10;;;2.20;;
19798;SDS011;10059;59.850;10.454;2022-10-16T06:34:27;4.10;;;2.90;;
19798;SDS011;10059;59.850;10.454;2022-10-16T06:36:54;6.37;;;4.40;;
19798;SDS011;10059;59.850;10.454;2022-10-16T06:39:21;7.07;;;5.83;;
19798;SDS011;10059;59.850;10.454;2022-10-16T06:41:48;11.23;;;8.57;;
19798;SDS011;10059;59.850;10.454;2022-10-16T06:44:15;10.03;;;7.00;;
19798;SDS011;10059;59.850;10.454;2022-10-16T06:46:42;13.30;;;7.83;;
19798;SDS011;10059;59.850;10.454;2022-10-16T06:49:09;6.53;;;4.40;;
19798;SDS011;10059;59.850;10.454;2022-10-16T06:51:38;8.77;;;6.53;;
19798;SDS011;10059;59.850;10.454;2022-10-16T06:54:06;14.80;;;11.30;;
19798;SDS011;10059;59.850;10.454;2022-10-16T06:56:33;21.43;;;15.60;;
19798;SDS011;10059;59.850;10.454;2022-10-16T06:59:00;23.97;;;15.57;;
19798;SDS011;10059;59.850;10.454;2022-10-16T07:01:28;25.80;;;12.67;;
19798;SDS011;10059;59.850;10.454;2022-10-16T07:03:55;18.13;;;10.53;;
19798;SDS011;10059;59.850;10.454;2022-10-16T07:06:23;15.80;;;11.53;;
19798;SDS011;10059;59.850;10.454;2022-10-16T07:08:52;14.03;;;9.80;;
19798;SDS011;10059;59.850;10.454;2022-10-16T07:11:21;19.27;;;9.93;;
19798;SDS011;10059;59.850;10.454;2022-10-16T07:13:50;8.33;;;4.40;;
19798;SDS011;10059;59.850;10.454;2022-10-16T07:16:18;7.13;;;3.83;;
19798;SDS011;10059;59.850;10.454;2022-10-16T07:18:46;5.50;;;3.87;;
19798;SDS011;10059;59.850;10.454;2022-10-16T07:21:15;5.77;;;4.40;;
19798;SDS011;10059;59.850;10.454;2022-10-16T07:23:44;6.93;;;3.87;;
19798;SDS011;10059;59.850;10.454;2022-10-16T07:26:12;6.53;;;4.57;;
19798;SDS011;10059;59.850;10.454;2022-10-16T07:28:40;5.93;;;4.80;;
19798;SDS011;10059;59.850;10.454;2022-10-16T07:31:10;11.93;;;7.67;;
19798;SDS011;10059;59.850;10.454;2022-10-16T07:33:38;11.30;;;6.80;;
19798;SDS011;10059;59.850;10.454;2022-10-16T07:36:07;6.10;;;4.70;;
19798;SDS011;10059;59.850;10.454;2022-10-16T07:38:34;9.83;;;6.10;;
19798;SDS011;10059;59.850;10.454;2022-10-16T07:41:01;8.70;;;5.90;;
19798;SDS011;10059;59.850;10.454;2022-10-16T07:43:31;7.83;;;5.07;;
19798;SDS011;10059;59.850;10.454;2022-10-16T07:45:59;9.53;;;4.90;;
19798;SDS011;10059;59.850;10.454;2022-10-16T07:48:27;6.30;;;4.37;;
19798;SDS011;10059;59.850;10.454;2022-10-16T07:50:56;7.07;;;5.63;;
19798;SDS011;10059;59.850;10.454;2022-10-16T07:53:24;7.57;;;5.60;;
19798;SDS011;10059;59.850;10.454;2022-10-16T07:55:51;23.47;;;5.50;;
19798;SDS011;10059;59.850;10.454;2022-10-16T07:58:18;18.87;;;8.57;;
19798;SDS011;10059;59.850;10.454;2022-10-16T08:00:46;12.23;;;6.63;;
19798;SDS011;10059;59.850;10.454;2022-10-16T08:03:13;14.17;;;7.17;;
19798;SDS011;10059;59.850;10.454;2022-10-16T08:05:40;15.03;;;6.40;;
19798;SDS011;10059;59.850;10.454;2022-10-16T08:08:10;29.20;;;7.27;;
19798;SDS011;10059;59.850;10.454;2022-10-16T08:10:39;20.67;;;7.80;;
19798;SDS011;10059;59.850;10.454;2022-10-16T08:13:06;22.60;;;7.50;;
19798;SDS011;10059;59.850;10.454;2022-10-16T08:15:33;72.87;;;10.87;;
19798;SDS011;10059;59.850;10.454;2022-10-16T08:18:02;21.60;;;9.93;;
19798;SDS011;10059;59.850;10.454;2022-10-16T08:20:31;35.43;;;11.37;;
19798;SDS011;10059;59.850;10.454;2022-10-16T08:22:59;29.40;;;8.40;;
19798;SDS011;10059;59.850;10.454;2022-10-16T08:25:26;22.47;;;9.23;;
19798;SDS011;10059;59.850;10.454;2022-10-16T08:27:53;33.77;;;7.63;;
19798;SDS011;10059;59.850;10.454;2022-10-16T08:30:21;50.53;;;15.53;;
19798;SDS011;10059;59.850;10.454;2022-10-16T08:32:49;42.37;;;17.13;;
19798;SDS011;10059;59.850;10.454;2022-10-16T08:35:18;126.37;;;54.07;;
19798;SDS011;10059;59.850;10.454;2022-10-16T08:37:45;30.97;;;16.10;;
19798;SDS011;10059;59.850;10.454;2022-10-16T08:40:15;22.13;;;12.70;;
19798;SDS011;10059;59.850;10.454;2022-10-16T08:45:48;24.77;;;8.70;;
19798;SDS011;10059;59.850;10.454;2022-10-16T08:48:30;18.90;;;8.17;;
19798;SDS011;10059;59.850;10.454;2022-10-16T08:51:03;17.53;;;8.67;;
19798;SDS011;10059;59.850;10.454;2022-10-16T08:53:36;11.93;;;8.00;;
19798;SDS011;10059;59.850;10.454;2022-10-16T08:56:08;17.20;;;9.80;;
19798;SDS011;10059;59.850;10.454;2022-10-16T08:58:35;16.00;;;9.83;;
19798;SDS011;10059;59.850;10.454;2022-10-16T09:01:03;15.67;;;8.53;;
19798;SDS011;10059;59.850;10.454;2022-10-16T09:03:41;14.07;;;9.10;;
19798;SDS011;10059;59.850;10.454;2022-10-16T09:06:29;20.80;;;10.90;;
19798;SDS011;10059;59.850;10.454;2022-10-16T09:09:18;17.73;;;10.63;;
19798;SDS011;10059;59.850;10.454;2022-10-16T09:12:03;18.10;;;10.97;;
19798;SDS011;10059;59.850;10.454;2022-10-16T09:14:37;19.37;;;12.30;;
19798;SDS011;10059;59.850;10.454;2022-10-16T09:17:18;18.03;;;11.57;;
19798;SDS011;10059;59.850;10.454;2022-10-16T09:19:59;17.00;;;9.97;;
19798;SDS011;10059;59.850;10.454;2022-10-16T09:22:40;23.67;;;14.53;;
19798;SDS011;10059;59.850;10.454;2022-10-16T09:25:10;18.87;;;11.33;;
19798;SDS011;10059;59.850;10.454;2022-10-16T09:27:38;21.23;;;12.40;;
19798;SDS011;10059;59.850;10.454;2022-10-16T09:30:10;22.73;;;14.70;;
19798;SDS011;10059;59.850;10.454;2022-10-16T09:32:39;15.30;;;10.90;;
19798;SDS011;10059;59.850;10.454;2022-10-16T09:35:09;19.50;;;10.27;;
19798;SDS011;10059;59.850;10.454;2022-10-16T09:37:41;19.90;;;11.90;;
19798;SDS011;10059;59.850;10.454;2022-10-16T09:40:13;17.60;;;10.83;;
19798;SDS011;10059;59.850;10.454;2022-10-16T09:42:50;15.83;;;9.50;;
19798;SDS011;10059;59.850;10.454;2022-10-16T09:45:20;14.70;;;8.67;;
19798;SDS011;10059;59.850;10.454;2022-10-16T09:47:49;20.63;;;10.50;;
19798;SDS011;10059;59.850;10.454;2022-10-16T09:50:20;14.63;;;9.57;;
19798;SDS011;10059;59.850;10.454;2022-10-16T09:53:01;14.50;;;8.87;;
19798;SDS011;10059;59.850;10.454;2022-10-16T09:55:30;14.07;;;8.87;;
19798;SDS011;10059;59.850;10.454;2022-10-16T09:57:56;30.17;;;14.27;;
19798;SDS011;10059;59.850;10.454;2022-10-16T10:00:26;21.57;;;11.27;;
19798;SDS011;10059;59.850;10.454;2022-10-16T10:02:55;39.90;;;17.43;;
19798;SDS011;10059;59.850;10.454;2022-10-16T10:05:22;95.30;;;37.60;;
19798;SDS011;10059;59.850;10.454;2022-10-16T10:07:56;29.43;;;15.17;;
19798;SDS011;10059;59.850;10.454;2022-10-16T10:10:24;23.57;;;10.63;;
19798;SDS011;10059;59.850;10.454;2022-10-16T10:12:53;16.83;;;10.60;;
19798;SDS011;10059;59.850;10.454;2022-10-16T10:15:21;14.37;;;8.23;;
19798;SDS011;10059;59.850;10.454;2022-10-16T10:17:50;16.07;;;8.53;;
19798;SDS011;10059;59.850;10.454;2022-10-16T10:20:23;25.43;;;14.30;;
19798;SDS011;10059;59.850;10.454;2022-10-16T10:22:52;17.73;;;8.93;;
19798;SDS011;10059;59.850;10.454;2022-10-16T10:25:34;14.47;;;8.53;;
19798;SDS011;10059;59.850;10.454;2022-10-16T10:31:12;23.10;;;12.57;;
19798;SDS011;10059;59.850;10.454;2022-10-16T10:33:47;17.83;;;10.20;;
19798;SDS011;10059;59.850;10.454;2022-10-16T10:36:23;15.40;;;9.53;;
19798;SDS011;10059;59.850;10.454;2022-10-16T10:38:57;13.17;;;7.47;;
19798;SDS011;10059;59.850;10.454;2022-10-16T10:44:40;12.47;;;7.47;;
19798;SDS011;10059;59.850;10.454;2022-10-16T10:47:23;11.63;;;7.07;;
19798;SDS011;10059;59.850;10.454;2022-10-16T10:50:03;14.77;;;8.07;;
19798;SDS011;10059;59.850;10.454;2022-10-16T10:52:41;14.40;;;8.03;;
19798;SDS011;10059;59.850;10.454;2022-10-16T10:55:19;11.93;;;8.37;;
19798;SDS011;10059;59.850;10.454;2022-10-16T10:57:56;19.77;;;11.17;;
19798;SDS011;10059;59.850;10.454;2022-10-16T11:00:43;15.93;;;9.13;;
19798;SDS011;10059;59.850;10.454;2022-10-16T11:03:20;13.63;;;9.07;;
19798;SDS011;10059;59.850;10.454;2022-10-16T11:06:00;18.43;;;9.53;;
19798;SDS011;10059;59.850;10.454;2022-10-16T11:08:33;13.85;;;9.93;;
19798;SDS011;10059;59.850;10.454;2022-10-16T11:11:05;19.27;;;12.93;;
19798;SDS011;10059;59.850;10.454;2022-10-16T11:13:39;16.80;;;9.27;;
19798;SDS011;10059;59.850;10.454;2022-10-16T11:16:13;30.27;;;18.73;;
19798;SDS011;10059;59.850;10.454;2022-10-16T11:18:46;30.83;;;17.30;;
19798;SDS011;10059;59.850;10.454;2022-10-16T11:21:20;13.13;;;7.87;;
19798;SDS011;10059;59.850;10.454;2022-10-16T11:23:51;13.50;;;9.00;;
19798;SDS011;10059;59.850;10.454;2022-10-16T11:26:29;15.23;;;8.60;;
19798;SDS011;10059;59.850;10.454;2022-10-16T11:29:02;15.97;;;8.33;;
19798;SDS011;10059;59.850;10.454;2022-10-16T11:31:32;14.00;;;7.40;;
19798;SDS011;10059;59.850;10.454;2022-10-16T11:34:04;13.97;;;8.60;;
19798;SDS011;10059;59.850;10.454;2022-10-16T11:36:42;17.80;;;9.37;;
19798;SDS011;10059;59.850;10.454;2022-10-16T11:39:17;14.50;;;8.90;;
19798;SDS011;10059;59.850;10.454;2022-10-16T11:41:47;17.40;;;9.17;;
19798;SDS011;10059;59.850;10.454;2022-10-16T11:44:25;12.33;;;7.90;;
19798;SDS011;10059;59.850;10.454;2022-10-16T11:47:01;16.60;;;8.60;;
19798;SDS011;10059;59.850;10.454;2022-10-16T11:49:38;20.80;;;10.77;;
19798;SDS011;10059;59.850;10.454;2022-10-16T11:52:07;15.57;;;8.47;;
19798;SDS011;10059;59.850;10.454;2022-10-16T11:54:44;11.53;;;7.13;;
19798;SDS011;10059;59.850;10.454;2022-10-16T11:57:16;15.67;;;7.70;;
19798;SDS011;10059;59.850;10.454;2022-10-16T11:59:48;14.13;;;6.67;;
19798;SDS011;10059;59.850;10.454;2022-10-16T12:05:14;13.67;;;6.57;;
19798;SDS011;10059;59.850;10.454;2022-10-16T12:07:49;13.20;;;7.17;;
19798;SDS011;10059;59.850;10.454;2022-10-16T12:10:23;23.63;;;12.23;;
19798;SDS011;10059;59.850;10.454;2022-10-16T12:12:51;28.23;;;13.53;;
19798;SDS011;10059;59.850;10.454;2022-10-16T12:15:21;20.03;;;10.23;;
19798;SDS011;10059;59.850;10.454;2022-10-16T12:17:50;17.40;;;8.37;;
19798;SDS011;10059;59.850;10.454;2022-10-16T12:20:20;20.47;;;10.00;;
19798;SDS011;10059;59.850;10.454;2022-10-16T12:22:51;28.33;;;12.83;;
19798;SDS011;10059;59.850;10.454;2022-10-16T12:25:21;22.87;;;11.90;;
19798;SDS011;10059;59.850;10.454;2022-10-16T12:27:53;25.10;;;13.23;;
19798;SDS011;10059;59.850;10.454;2022-10-16T12:30:23;23.50;;;12.30;;
19798;SDS011;10059;59.850;10.454;2022-10-16T12:32:53;22.77;;;13.30;;
19798;SDS011;10059;59.850;10.454;2022-10-16T12:35:21;27.90;;;15.23;;
19798;SDS011;10059;59.850;10.454;2022-10-16T12:37:51;26.03;;;13.83;;
19798;SDS011;10059;59.850;10.454;2022-10-16T12:40:26;22.63;;;12.77;;
19798;SDS011;10059;59.850;10.454;2022-10-16T12:42:54;26.40;;;12.87;;
19798;SDS011;10059;59.850;10.454;2022-10-16T12:45:25;28.23;;;12.60;;
19798;SDS011;10059;59.850;10.454;2022-10-16T12:47:54;15.13;;;7.87;;
19798;SDS011;10059;59.850;10.454;2022-10-16T12:50:32;18.27;;;8.90;;
19798;SDS011;10059;59.850;10.454;2022-10-16T12:53:01;17.23;;;8.10;;
19798;SDS011;10059;59.850;10.454;2022-10-16T12:55:33;31.57;;;12.13;;
19798;SDS011;10059;59.850;10.454;2022-10-16T12:58:13;19.07;;;8.40;;
19798;SDS011;10059;59.850;10.454;2022-10-16T13:00:53;19.40;;;8.63;;
19798;SDS011;10059;59.850;10.454;2022-10-16T13:03:27;33.60;;;12.20;;
19798;SDS011;10059;59.850;10.454;2022-10-16T13:06:25;22.17;;;10.53;;
19798;SDS011;10059;59.850;10.454;2022-10-16T13:09:04;18.50;;;10.67;;
19798;SDS011;10059;59.850;10.454;2022-10-16T13:11:51;18.57;;;9.50;;
19798;SDS011;10059;59.850;10.454;2022-10-16T13:14:35;18.97;;;8.73;;
19798;SDS011;10059;59.850;10.454;2022-10-16T13:17:21;17.57;;;9.77;;
19798;SDS011;10059;59.850;10.454;2022-10-16T13:19:56;19.43;;;10.23;;
19798;SDS011;10059;59.850;10.454;2022-10-16T13:22:29;15.30;;;7.97;;
19798;SDS011;10059;59.850;10.454;2022-10-16T13:25:08;22.73;;;11.50;;
19798;SDS011;10059;59.850;10.454;2022-10-16T13:27:45;13.83;;;8.03;;
19798;SDS011;10059;59.850;10.454;2022-10-16T13:30:19;16.90;;;9.17;;
19798;SDS011;10059;59.850;10.454;2022-10-16T13:32:50;33.40;;;16.77;;
19798;SDS011;10059;59.850;10.454;2022-10-16T13:35:25;40.53;;;20.33;;
19798;SDS011;10059;59.850;10.454;2022-10-16T13:38:03;20.07;;;8.10;;
19798;SDS011;10059;59.850;10.454;2022-10-16T13:40:30;30.77;;;17.07;;
19798;SDS011;10059;59.850;10.454;2022-10-16T13:42:59;22.07;;;11.90;;
19798;SDS011;10059;59.850;10.454;2022-10-16T13:45:27;14.17;;;8.50;;
19798;SDS011;10059;59.850;10.454;2022-10-16T13:48:02;13.80;;;7.73;;
19798;SDS011;10059;59.850;10.454;2022-10-16T13:50:29;18.60;;;9.30;;
19798;SDS011;10059;59.850;10.454;2022-10-16T13:53:03;17.73;;;9.23;;
19798;SDS011;10059;59.850;10.454;2022-10-16T13:55:31;13.60;;;7.60;;
19798;SDS011;10059;59.850;10.454;2022-10-16T13:58:04;10.80;;;5.73;;
19798;SDS011;10059;59.850;10.454;2022-10-16T14:00:32;11.13;;;4.60;;
19798;SDS011;10059;59.850;10.454;2022-10-16T14:03:01;5.10;;;3.90;;
19798;SDS011;10059;59.850;10.454;2022-10-16T14:05:31;9.63;;;4.43;;
19798;SDS011;10059;59.850;10.454;2022-10-16T14:07:58;10.63;;;4.50;;
19798;SDS011;10059;59.850;10.454;2022-10-16T14:10:26;12.27;;;6.27;;
19798;SDS011;10059;59.850;10.454;2022-10-16T14:12:56;15.87;;;6.70;;
19798;SDS011;10059;59.850;10.454;2022-10-16T14:15:24;8.80;;;4.70;;
19798;SDS011;10059;59.850;10.454;2022-10-16T14:17:51;8.43;;;4.73;;
19798;SDS011;10059;59.850;10.454;2022-10-16T14:20:22;8.57;;;4.80;;
19798;SDS011;10059;59.850;10.454;2022-10-16T14:22:58;9.57;;;4.97;;
19798;SDS011;10059;59.850;10.454;2022-10-16T14:25:26;8.03;;;4.87;;
19798;SDS011;10059;59.850;10.454;2022-10-16T14:28:02;12.37;;;5.43;;
19798;SDS011;10059;59.850;10.454;2022-10-16T14:30:30;13.80;;;7.23;;
19798;SDS011;10059;59.850;10.454;2022-10-16T14:32:59;13.10;;;7.80;;
19798;SDS011;10059;59.850;10.454;2022-10-16T14:35:30;14.17;;;8.67;;
19798;SDS011;10059;59.850;10.454;2022-10-16T14:37:59;9.33;;;6.00;;
19798;SDS011;10059;59.850;10.454;2022-10-16T14:40:28;10.63;;;6.37;;
19798;SDS011;10059;59.850;10.454;2022-10-16T14:42:56;11.40;;;6.03;;
19798;SDS011;10059;59.850;10.454;2022-10-16T14:45:26;12.63;;;6.40;;
19798;SDS011;10059;59.850;10.454;2022-10-16T14:47:55;5.40;;;3.10;;
19798;SDS011;10059;59.850;10.454;2022-10-16T14:50:26;4.90;;;2.77;;
19798;SDS011;10059;59.850;10.454;2022-10-16T14:52:55;6.50;;;2.33;;
19798;SDS011;10059;59.850;10.454;2022-10-16T14:55:22;5.83;;;2.10;;